createdAt,value
2023-04-17T00:00:56.018Z,35.50
2023-04-17T00:03:25.930Z,37.70
2023-04-17T00:05:54.346Z,40.17
2023-04-17T00:08:22.725Z,40.23
2023-04-17T00:10:57.072Z,40.97
2023-04-17T00:13:32.949Z,40.10
2023-04-17T00:16:01.368Z,39.27
2023-04-17T00:18:31.366Z,38.77
2023-04-17T00:20:59.782Z,36.80
2023-04-17T00:23:28.180Z,34.80
2023-04-17T00:25:56.523Z,32.97
2023-04-17T00:28:25.181Z,32.60
2023-04-17T00:30:53.645Z,30.00
2023-04-17T00:33:22.065Z,31.23
2023-04-17T00:35:51.839Z,33.07
2023-04-17T00:38:20.383Z,31.43
2023-04-17T00:40:48.932Z,32.73
2023-04-17T00:43:17.262Z,33.07
2023-04-17T00:45:45.837Z,28.97
2023-04-17T00:48:14.370Z,27.87
2023-04-17T00:50:42.884Z,27.17
2023-04-17T00:53:12.709Z,26.93
2023-04-17T00:55:41.476Z,27.83
2023-04-17T00:58:09.984Z,27.97
2023-04-17T01:00:38.750Z,27.23
2023-04-17T01:03:07.394Z,26.47
2023-04-17T01:05:38.301Z,27.47
2023-04-17T01:08:07.250Z,28.07
2023-04-17T01:10:37.085Z,26.33
2023-04-17T01:13:05.656Z,25.33
2023-04-17T01:15:34.156Z,28.63
2023-04-17T01:18:02.784Z,27.80
2023-04-17T01:20:31.430Z,27.07
2023-04-17T01:23:00.226Z,27.93
2023-04-17T01:25:30.027Z,27.97
2023-04-17T01:27:58.571Z,28.37
2023-04-17T01:30:27.001Z,28.70
2023-04-17T01:32:56.217Z,30.13
2023-04-17T01:35:24.701Z,29.63
2023-04-17T01:37:53.367Z,30.27
2023-04-17T01:40:21.859Z,29.30
2023-04-17T01:42:51.593Z,28.63
2023-04-17T01:45:20.143Z,28.70
2023-04-17T01:47:48.618Z,30.33
2023-04-17T01:50:17.038Z,30.80
2023-04-17T01:52:46.124Z,29.43
2023-04-17T01:55:14.632Z,28.70
2023-04-17T01:57:43.699Z,28.30
2023-04-17T02:00:14.143Z,28.10
2023-04-17T02:02:42.869Z,29.13
2023-04-17T02:05:11.463Z,26.83
2023-04-17T02:07:40.007Z,27.27
2023-04-17T02:10:09.050Z,27.93
2023-04-17T02:12:37.434Z,27.90
2023-04-17T02:15:06.082Z,27.73
2023-04-17T02:17:35.998Z,28.10
2023-04-17T02:20:07.005Z,26.80
2023-04-17T02:22:35.697Z,28.37
2023-04-17T02:25:04.221Z,26.57
2023-04-17T02:27:32.662Z,25.10
2023-04-17T02:30:01.411Z,26.10
2023-04-17T02:32:29.839Z,25.27
2023-04-17T02:34:59.777Z,24.03
2023-04-17T02:37:28.136Z,23.70
2023-04-17T02:39:56.839Z,23.33
2023-04-17T02:42:25.231Z,22.27
2023-04-17T02:44:54.162Z,22.97
2023-04-17T02:47:22.649Z,21.87
2023-04-17T02:49:51.228Z,20.30
2023-04-17T02:52:21.045Z,21.30
2023-04-17T02:54:49.481Z,20.63
2023-04-17T02:57:18.156Z,21.47
2023-04-17T02:59:46.624Z,23.23
2023-04-17T03:02:15.492Z,22.00
2023-04-17T03:04:44.523Z,23.13
2023-04-17T03:07:13.368Z,22.30
2023-04-17T03:09:45.791Z,23.33
2023-04-17T03:12:14.126Z,23.93
2023-04-17T03:14:42.552Z,22.47
2023-04-17T03:17:11.068Z,23.53
2023-04-17T03:19:39.507Z,23.83
2023-04-17T03:22:07.959Z,23.60
2023-04-17T03:24:36.428Z,24.83
2023-04-17T03:27:06.332Z,25.00
2023-04-17T03:29:34.801Z,25.00
2023-04-17T03:32:03.353Z,24.70
2023-04-17T03:34:32.717Z,24.10
2023-04-17T03:37:01.250Z,24.83
2023-04-17T03:39:29.808Z,23.37
2023-04-17T03:41:58.184Z,23.70
2023-04-17T03:44:28.206Z,25.07
2023-04-17T03:46:56.794Z,25.07
2023-04-17T03:49:25.240Z,25.70
2023-04-17T03:51:53.624Z,23.13
2023-04-17T03:54:22.024Z,24.73
2023-04-17T03:56:50.426Z,24.43
2023-04-17T03:59:18.862Z,23.23
2023-04-17T04:01:48.659Z,24.30
2023-04-17T04:04:17.327Z,22.47
2023-04-17T04:06:47.271Z,23.07
2023-04-17T04:09:15.932Z,22.73
2023-04-17T04:11:44.302Z,21.60
2023-04-17T04:14:12.620Z,21.87
2023-04-17T04:16:41.101Z,21.57
2023-04-17T04:19:11.403Z,21.73
2023-04-17T04:21:40.106Z,23.30
2023-04-17T04:24:08.785Z,22.03
2023-04-17T04:26:38.076Z,21.33
2023-04-17T04:29:06.528Z,21.23
2023-04-17T04:31:35.785Z,23.27
2023-04-17T04:34:06.017Z,22.83
2023-04-17T04:36:36.472Z,22.67
2023-04-17T04:39:06.916Z,23.47
2023-04-17T04:41:35.337Z,20.90
2023-04-17T04:44:03.806Z,21.47
2023-04-17T04:46:32.299Z,20.57
2023-04-17T04:49:00.785Z,21.27
2023-04-17T04:51:29.761Z,21.00
2023-04-17T04:53:59.574Z,22.47
2023-04-17T04:56:28.804Z,21.67
2023-04-17T04:58:58.363Z,22.23
2023-04-17T05:01:27.974Z,22.53
2023-04-17T05:03:57.077Z,22.43
2023-04-17T05:06:26.201Z,20.93
2023-04-17T05:08:54.630Z,22.07
2023-04-17T05:11:24.716Z,22.00
2023-04-17T05:13:53.200Z,21.00
2023-04-17T05:16:22.361Z,22.20
2023-04-17T05:18:51.103Z,21.23
2023-04-17T05:21:19.534Z,21.53
2023-04-17T05:23:48.895Z,22.17
2023-04-17T05:26:17.766Z,22.17
2023-04-17T05:28:48.096Z,24.03
2023-04-17T05:31:16.984Z,23.23
2023-04-17T05:33:45.542Z,23.73
2023-04-17T05:36:14.069Z,22.43
2023-04-17T05:38:44.766Z,23.93
2023-04-17T05:41:14.521Z,22.07
2023-04-17T05:43:43.250Z,22.37
2023-04-17T05:46:13.352Z,23.17
2023-04-17T05:48:42.261Z,23.70
2023-04-17T05:51:10.840Z,23.50
2023-04-17T05:53:39.298Z,23.87
2023-04-17T05:56:07.821Z,22.97
2023-04-17T05:58:37.310Z,23.17
2023-04-17T06:01:06.676Z,23.50
2023-04-17T06:03:36.856Z,24.07
2023-04-17T06:06:05.516Z,24.03
2023-04-17T06:08:34.114Z,23.90
2023-04-17T06:11:02.796Z,23.97
2023-04-17T06:13:31.401Z,25.37
2023-04-17T06:15:59.892Z,24.73
2023-04-17T06:18:28.568Z,26.30
2023-04-17T06:20:58.848Z,24.20
2023-04-17T06:23:28.873Z,23.87
2023-04-17T06:25:57.968Z,24.23
2023-04-17T06:28:29.615Z,24.07
2023-04-17T06:30:58.264Z,24.17
2023-04-17T06:33:27.072Z,24.47
2023-04-17T06:35:55.570Z,24.53
2023-04-17T06:38:25.882Z,24.23
2023-04-17T06:40:54.414Z,24.30
2023-04-17T06:43:22.978Z,24.60
2023-04-17T06:45:51.449Z,24.37
2023-04-17T06:48:19.957Z,24.57
2023-04-17T06:50:51.203Z,24.17
2023-04-17T06:53:19.697Z,24.53
2023-04-17T06:55:49.561Z,23.43
2023-04-17T06:58:18.063Z,25.37
2023-04-17T07:00:46.405Z,24.10
2023-04-17T07:03:15.105Z,24.30
2023-04-17T07:05:44.358Z,24.13
2023-04-17T07:08:16.118Z,25.33
2023-04-17T07:10:44.793Z,25.47
2023-04-17T07:13:14.791Z,24.13
2023-04-17T07:15:43.842Z,24.43
2023-04-17T07:18:12.531Z,25.37
2023-04-17T07:20:41.164Z,24.67
2023-04-17T07:23:09.633Z,25.33
2023-04-17T07:25:38.104Z,25.90
2023-04-17T07:28:06.512Z,25.30
2023-04-17T07:30:36.934Z,27.03
2023-04-17T07:33:05.405Z,25.80
2023-04-17T07:35:34.040Z,26.50
2023-04-17T07:38:04.139Z,26.47
2023-04-17T07:40:33.490Z,25.73
2023-04-17T07:43:02.047Z,24.20
2023-04-17T07:45:30.782Z,25.93
2023-04-17T07:48:00.778Z,25.27
2023-04-17T07:50:29.305Z,23.87
2023-04-17T07:52:58.090Z,25.47
2023-04-17T07:55:26.599Z,25.00
2023-04-17T07:57:55.017Z,24.83
2023-04-17T08:00:24.098Z,25.27
2023-04-17T08:02:52.852Z,25.03
2023-04-17T08:05:24.157Z,23.70
2023-04-17T08:07:52.687Z,25.20
2023-04-17T08:10:21.154Z,24.77
2023-04-17T08:12:49.572Z,26.00
2023-04-17T08:15:18.603Z,25.63
2023-04-17T08:17:47.239Z,26.70
2023-04-17T08:20:17.644Z,25.57
2023-04-17T08:22:47.736Z,26.13
2023-04-17T08:25:16.352Z,25.17
2023-04-17T08:27:45.157Z,26.40
2023-04-17T08:30:16.892Z,26.83
2023-04-17T08:32:47.002Z,25.63
2023-04-17T08:35:15.877Z,28.23
2023-04-17T08:37:46.805Z,25.93
2023-04-17T08:40:17.493Z,27.00
2023-04-17T08:42:47.861Z,26.17
2023-04-17T08:45:17.735Z,25.80
2023-04-17T08:47:46.247Z,25.73
2023-04-17T08:50:15.453Z,24.73
2023-04-17T08:52:44.205Z,23.27
2023-04-17T08:55:13.958Z,22.67
2023-04-17T08:58:01.062Z,23.50
2023-04-17T09:00:29.828Z,22.57
2023-04-17T09:02:59.269Z,23.80
2023-04-17T09:05:30.217Z,23.67
2023-04-17T09:08:08.618Z,24.20
2023-04-17T09:10:37.864Z,24.47
2023-04-17T09:13:08.553Z,25.87
2023-04-17T09:15:37.217Z,25.30
2023-04-17T09:18:05.866Z,25.57
2023-04-17T09:20:34.386Z,26.87
2023-04-17T09:23:03.215Z,25.60
2023-04-17T09:25:31.944Z,26.83
2023-04-17T09:28:16.307Z,25.73
2023-04-17T09:30:44.849Z,26.37
2023-04-17T09:33:13.621Z,25.73
2023-04-17T09:35:42.261Z,25.60
2023-04-17T09:38:10.661Z,25.20
2023-04-17T09:40:39.484Z,23.87
2023-04-17T09:43:09.897Z,23.47
2023-04-17T09:45:42.769Z,22.00
2023-04-17T09:48:11.929Z,21.87
2023-04-17T09:50:40.479Z,22.23
2023-04-17T09:53:09.291Z,22.43
2023-04-17T09:55:38.175Z,22.70
2023-04-17T09:58:07.466Z,21.73
2023-04-17T10:00:41.092Z,21.07
2023-04-17T10:03:10.076Z,20.83
2023-04-17T10:05:38.734Z,21.47
2023-04-17T10:08:07.832Z,21.47
2023-04-17T10:10:36.684Z,21.63
2023-04-17T10:13:05.467Z,22.43
2023-04-17T10:15:34.344Z,21.67
2023-04-17T10:18:23.691Z,22.27
2023-04-17T10:20:53.464Z,22.03
2023-04-17T10:23:30.003Z,22.20
2023-04-17T10:26:14.451Z,21.50
2023-04-17T10:28:49.372Z,21.03
2023-04-17T10:31:20.813Z,20.67
2023-04-17T10:33:54.434Z,21.60
2023-04-17T10:36:41.418Z,22.70
2023-04-17T10:39:16.164Z,21.80
2023-04-17T10:41:59.507Z,20.80
2023-04-17T10:44:28.053Z,20.97
2023-04-17T10:46:56.447Z,21.90
2023-04-17T10:49:26.325Z,22.30
2023-04-17T10:51:55.021Z,21.63
2023-04-17T10:54:23.411Z,22.07
2023-04-17T10:56:55.932Z,21.57
2023-04-17T10:59:30.074Z,22.37
2023-04-17T11:02:01.218Z,21.33
2023-04-17T11:04:32.061Z,22.00
2023-04-17T11:07:00.749Z,22.93
2023-04-17T11:09:29.677Z,24.37
2023-04-17T11:12:00.184Z,25.13
2023-04-17T11:14:28.624Z,23.43
2023-04-17T11:17:00.227Z,24.07
2023-04-17T11:19:28.865Z,22.20
2023-04-17T11:22:01.373Z,21.63
2023-04-17T11:24:30.619Z,21.13
2023-04-17T11:26:59.978Z,22.30
2023-04-17T11:29:28.569Z,20.93
2023-04-17T11:31:57.413Z,19.97
2023-04-17T11:34:27.353Z,20.40
2023-04-17T11:37:00.962Z,20.00
2023-04-17T11:39:31.279Z,20.07
2023-04-17T11:41:59.839Z,19.47
2023-04-17T11:44:28.325Z,19.47
2023-04-17T11:46:57.006Z,19.13
2023-04-17T11:49:27.285Z,18.90
2023-04-17T11:51:56.826Z,17.70
2023-04-17T11:54:29.653Z,19.93
2023-04-17T11:57:02.485Z,18.50
2023-04-17T11:59:34.173Z,19.30
2023-04-17T12:02:02.624Z,18.70
2023-04-17T12:04:33.840Z,16.47
2023-04-17T12:07:03.168Z,16.73
2023-04-17T12:09:32.900Z,17.67
2023-04-17T12:12:01.881Z,16.73
2023-04-17T12:14:30.444Z,15.07
2023-04-17T12:16:58.922Z,15.70
2023-04-17T12:19:29.967Z,15.73
2023-04-17T12:21:59.459Z,15.87
2023-04-17T12:24:27.948Z,16.50
2023-04-17T12:26:58.782Z,15.37
2023-04-17T12:29:42.382Z,15.73
2023-04-17T12:32:12.309Z,15.10
2023-04-17T12:34:40.822Z,14.77
2023-04-17T12:37:09.218Z,14.10
2023-04-17T12:39:37.533Z,14.37
2023-04-17T12:42:07.574Z,15.17
2023-04-17T12:44:39.855Z,13.03
2023-04-17T12:47:08.488Z,13.73
2023-04-17T12:49:36.848Z,13.73
2023-04-17T12:52:05.363Z,13.97
2023-04-17T12:54:34.190Z,14.60
2023-04-17T12:57:03.433Z,14.40
2023-04-17T12:59:33.400Z,13.73
2023-04-17T13:02:02.894Z,13.97
2023-04-17T13:04:31.794Z,13.40
2023-04-17T13:07:00.378Z,12.70
2023-04-17T13:09:30.095Z,13.43
2023-04-17T13:11:58.683Z,13.03
2023-04-17T13:14:27.468Z,13.10
2023-04-17T13:16:57.219Z,12.50
2023-04-17T13:19:25.757Z,13.83
2023-04-17T13:21:54.747Z,13.13
2023-04-17T13:24:23.402Z,12.43
2023-04-17T13:26:52.023Z,13.10
2023-04-17T13:29:20.796Z,13.00
2023-04-17T13:31:49.604Z,13.33
2023-04-17T13:34:19.756Z,13.37
2023-04-17T13:36:48.220Z,12.97
2023-04-17T13:39:16.645Z,13.23
2023-04-17T13:41:45.939Z,13.43
2023-04-17T13:44:14.815Z,13.93
2023-04-17T13:46:44.178Z,14.40
2023-04-17T13:49:13.457Z,14.80
2023-04-17T13:51:43.520Z,15.03
2023-04-17T13:54:12.254Z,14.00
2023-04-17T13:56:40.765Z,15.13
2023-04-17T13:59:09.919Z,14.63
2023-04-17T14:01:39.496Z,12.93
2023-04-17T14:04:08.724Z,13.30
2023-04-17T14:06:40.457Z,14.77
2023-04-17T14:09:10.447Z,14.20
2023-04-17T14:11:39.932Z,15.30
2023-04-17T14:14:08.397Z,13.77
2023-04-17T14:16:36.867Z,13.40
2023-04-17T14:21:40.856Z,13.47
2023-04-17T14:24:10.597Z,12.90
2023-04-17T14:26:38.994Z,13.10
2023-04-17T14:29:07.617Z,12.50
2023-04-17T14:31:36.092Z,13.63
2023-04-17T14:34:04.822Z,13.07
2023-04-17T14:36:33.212Z,13.13
2023-04-17T14:39:01.817Z,12.23
2023-04-17T14:41:33.991Z,12.63
2023-04-17T14:44:02.697Z,12.40
2023-04-17T14:46:31.392Z,12.97
2023-04-17T14:49:06.285Z,13.17
2023-04-17T14:51:34.844Z,12.63
2023-04-17T14:54:03.485Z,12.57
2023-04-17T14:56:33.232Z,12.43
2023-04-17T14:59:01.611Z,13.30
2023-04-17T15:01:30.408Z,13.90
2023-04-17T15:03:59.418Z,13.30
2023-04-17T15:06:28.354Z,13.13
2023-04-17T15:08:56.755Z,13.43
2023-04-17T15:11:25.346Z,13.47
2023-04-17T15:13:55.077Z,12.50
2023-04-17T15:16:23.997Z,14.10
2023-04-17T15:18:55.127Z,13.03
2023-04-17T15:21:23.592Z,13.30
2023-04-17T15:23:52.484Z,12.37
2023-04-17T15:26:21.374Z,11.87
2023-04-17T15:28:50.984Z,11.83
2023-04-17T15:31:21.374Z,11.60
2023-04-17T15:33:49.888Z,12.07
2023-04-17T15:36:18.580Z,11.10
2023-04-17T15:38:47.054Z,10.90
2023-04-17T15:41:15.549Z,11.10
2023-04-17T15:43:44.152Z,11.53
2023-04-17T15:46:13.017Z,11.03
2023-04-17T15:48:42.988Z,11.80
2023-04-17T15:51:13.447Z,11.37
2023-04-17T15:53:42.007Z,12.23
2023-04-17T15:56:10.853Z,11.33
2023-04-17T15:58:39.233Z,12.37
2023-04-17T16:01:07.819Z,15.87
2023-04-17T16:03:37.377Z,15.67
2023-04-17T16:06:07.491Z,13.50
2023-04-17T16:08:35.864Z,15.63
2023-04-17T16:11:04.471Z,17.23
2023-04-17T16:13:33.254Z,16.00
2023-04-17T16:16:01.994Z,15.83
2023-04-17T16:18:30.542Z,15.87
2023-04-17T16:20:59.637Z,14.93
2023-04-17T16:23:29.540Z,15.60
2023-04-17T16:25:58.353Z,16.20
2023-04-17T16:28:27.053Z,16.03
2023-04-17T16:30:55.504Z,17.03
2023-04-17T16:33:24.633Z,17.00
2023-04-17T16:35:54.038Z,16.90
2023-04-17T16:38:22.793Z,16.73
2023-04-17T16:40:53.774Z,16.60
2023-04-17T16:43:22.794Z,16.73
2023-04-17T16:45:51.340Z,15.93
2023-04-17T16:48:19.875Z,15.80
2023-04-17T16:50:48.486Z,15.57
2023-04-17T16:53:17.110Z,16.90
2023-04-17T16:55:48.084Z,17.23
2023-04-17T16:58:17.882Z,15.90
2023-04-17T17:00:46.315Z,16.40
2023-04-17T17:03:21.122Z,16.57
2023-04-17T17:05:49.642Z,16.70
2023-04-17T17:08:18.304Z,16.33
2023-04-17T17:10:46.756Z,16.20
2023-04-17T17:13:15.136Z,17.10
2023-04-17T17:15:45.438Z,15.53
2023-04-17T17:18:14.316Z,17.03
2023-04-17T17:20:42.946Z,17.17
2023-04-17T17:23:11.486Z,16.63
2023-04-17T17:25:40.072Z,17.23
2023-04-17T17:28:08.789Z,17.43
2023-04-17T17:30:37.259Z,17.73
2023-04-17T17:33:07.124Z,17.83
2023-04-17T17:35:35.712Z,17.13
2023-04-17T17:38:04.190Z,18.60
2023-04-17T17:40:32.620Z,18.40
2023-04-17T17:43:01.377Z,18.60
2023-04-17T17:45:29.891Z,19.53
2023-04-17T17:47:58.372Z,20.07
2023-04-17T17:50:28.282Z,19.80
2023-04-17T17:52:58.679Z,20.87
2023-04-17T17:55:27.511Z,19.97
2023-04-17T17:57:55.929Z,21.10
2023-04-17T18:00:24.624Z,20.80
2023-04-17T18:02:53.200Z,19.67
2023-04-17T18:05:21.823Z,20.63
2023-04-17T18:07:51.689Z,19.70
2023-04-17T18:10:20.220Z,20.57
2023-04-17T18:12:49.247Z,20.30
2023-04-17T18:15:17.843Z,21.43
2023-04-17T18:17:46.246Z,21.23
2023-04-17T18:20:14.839Z,20.53
2023-04-17T18:22:43.347Z,21.87
2023-04-17T18:25:13.660Z,22.50
2023-04-17T18:27:42.119Z,20.93
2023-04-17T18:30:11.035Z,21.83
2023-04-17T18:32:39.505Z,20.93
2023-04-17T18:35:08.608Z,21.97
2023-04-17T18:37:37.710Z,22.50
2023-04-17T18:40:10.448Z,21.60
2023-04-17T18:42:40.262Z,21.30
2023-04-17T18:45:09.896Z,19.53
2023-04-17T18:47:38.376Z,20.27
2023-04-17T18:50:07.578Z,21.37
2023-04-17T18:52:39.304Z,20.97
2023-04-17T18:55:08.416Z,21.87
2023-04-17T18:57:37.820Z,21.77
2023-04-17T19:00:08.747Z,21.30
2023-04-17T19:02:37.641Z,21.00
2023-04-17T19:05:06.604Z,22.13
2023-04-17T19:07:35.258Z,22.97
2023-04-17T19:10:03.749Z,21.67
2023-04-17T19:12:32.341Z,21.70
2023-04-17T19:15:00.859Z,21.80
2023-04-17T19:17:30.703Z,21.97
2023-04-17T19:19:59.880Z,20.80
2023-04-17T19:22:28.359Z,20.93
2023-04-17T19:24:56.716Z,22.00
2023-04-17T19:27:27.197Z,21.87
2023-04-17T19:29:56.038Z,22.00
2023-04-17T19:32:24.613Z,20.53
2023-04-17T19:34:54.584Z,22.50
2023-04-17T19:37:23.113Z,22.50
2023-04-17T19:39:56.700Z,22.53
2023-04-17T19:42:25.909Z,23.20
2023-04-17T19:44:54.241Z,22.60
2023-04-17T19:47:23.959Z,22.97
2023-04-17T19:49:54.589Z,23.90
2023-04-17T19:52:23.594Z,23.43
2023-04-17T19:54:52.176Z,24.00
2023-04-17T19:57:20.964Z,23.90
2023-04-17T19:59:49.530Z,22.97
2023-04-17T20:02:21.524Z,24.20
2023-04-17T20:04:50.215Z,22.60
2023-04-17T20:07:20.066Z,22.77
2023-04-17T20:09:48.502Z,24.27
2023-04-17T20:12:17.467Z,23.47
2023-04-17T20:14:46.264Z,23.63
2023-04-17T20:17:16.149Z,24.10
2023-04-17T20:19:44.623Z,23.30
2023-04-17T20:22:13.069Z,23.27
2023-04-17T20:24:46.385Z,24.20
2023-04-17T20:27:14.964Z,24.77
2023-04-17T20:29:43.531Z,24.73
2023-04-17T20:32:11.977Z,24.10
2023-04-17T20:34:40.536Z,23.93
2023-04-17T20:37:09.567Z,24.43
2023-04-17T20:39:38.019Z,24.57
2023-04-17T20:42:07.958Z,22.90
2023-04-17T20:44:36.640Z,24.03
2023-04-17T20:47:05.045Z,23.63
2023-04-17T20:49:34.008Z,23.37
2023-04-17T20:52:03.160Z,22.93
2023-04-17T20:54:31.588Z,21.60
2023-04-17T20:57:00.140Z,23.60
2023-04-17T20:59:30.677Z,22.33
2023-04-17T21:01:59.116Z,23.23
2023-04-17T21:04:27.896Z,22.13
2023-04-17T21:06:56.859Z,22.50
2023-04-17T21:09:26.370Z,22.63
2023-04-17T21:11:54.747Z,20.50
2023-04-17T21:14:23.167Z,20.87
2023-04-17T21:16:54.889Z,20.47
2023-04-17T21:19:24.296Z,20.37
2023-04-17T21:21:54.844Z,20.47
2023-04-17T21:24:23.359Z,18.83
2023-04-17T21:26:53.341Z,19.70
2023-04-17T21:29:21.882Z,18.70
2023-04-17T21:31:50.477Z,17.83
2023-04-17T21:34:20.253Z,18.47
2023-04-17T21:36:49.897Z,16.50
2023-04-17T21:39:18.323Z,17.53
2023-04-17T21:41:46.794Z,17.10
2023-04-17T21:44:15.686Z,16.20
2023-04-17T21:46:46.050Z,15.77
2023-04-17T21:49:15.185Z,15.37
2023-04-17T21:51:45.082Z,15.23
2023-04-17T21:54:13.862Z,15.40
2023-04-17T21:56:42.737Z,16.87
2023-04-17T21:59:11.352Z,15.43
2023-04-17T22:01:39.891Z,16.03
2023-04-17T22:04:08.417Z,15.07
2023-04-17T22:06:39.226Z,15.53
2023-04-17T22:09:08.997Z,15.80
2023-04-17T22:11:38.926Z,15.90
2023-04-17T22:14:07.339Z,16.33
2023-04-17T22:16:35.949Z,16.10
2023-04-17T22:19:04.450Z,16.10
2023-04-17T22:22:09.560Z,15.77
2023-04-17T22:24:56.867Z,15.57
2023-04-17T22:27:44.002Z,15.93
2023-04-17T22:30:30.256Z,15.70
2023-04-17T22:33:16.369Z,14.97
2023-04-17T22:36:02.635Z,15.27
2023-04-17T22:38:49.857Z,16.07
2023-04-17T22:41:36.867Z,15.10
2023-04-17T22:44:07.278Z,15.37
2023-04-17T22:46:35.776Z,15.50
2023-04-17T22:49:21.781Z,16.43
2023-04-17T22:51:50.255Z,15.23
2023-04-17T22:54:37.065Z,15.70
2023-04-17T22:57:05.652Z,15.27
2023-04-17T22:59:52.671Z,16.53
2023-04-17T23:02:57.339Z,15.40
2023-04-17T23:06:01.884Z,15.70
2023-04-17T23:08:32.730Z,15.87
2023-04-17T23:11:01.256Z,15.13
2023-04-17T23:13:29.725Z,15.17
2023-04-17T23:15:58.216Z,16.67
2023-04-17T23:18:26.687Z,16.33
2023-04-17T23:20:55.174Z,16.80
2023-04-17T23:23:23.665Z,17.57
2023-04-17T23:25:53.464Z,18.17
2023-04-17T23:28:21.974Z,17.07
2023-04-17T23:30:50.342Z,17.57
2023-04-17T23:33:18.833Z,16.80
2023-04-17T23:35:47.222Z,17.50
2023-04-17T23:38:15.934Z,18.23
2023-04-17T23:40:44.322Z,18.73
2023-04-17T23:43:14.664Z,18.90
2023-04-17T23:45:43.122Z,18.07
2023-04-17T23:48:11.608Z,18.57
2023-04-17T23:50:40.005Z,18.50
2023-04-17T23:53:08.635Z,19.10
2023-04-17T23:55:37.096Z,18.70
2023-04-17T23:58:05.525Z,19.03
